Time;durP1;ratioP1;P1;durP2;ratioP2;P2;SDS_P1;SDS_P2;PMS_P1;PMS_P2;Temp;Humidity;BMP_temperature;BMP_pressure;BME280_temperature;BME280_humidity;BME280_pressure;Samples;Min_cycle;Max_cycle;Signal;HPM_P1;HPM_P2
2023/06/13 00:00:11;;;;;;;2.63;0.88;;;25.00;70.30;;;;;;20796076;28;20229;-83
2023/06/13 00:10:13;;;;;;;1.52;1.00;;;;;;;;;;20761136;28;20233;-83
2023/06/13 00:20:15;;;;;;;1.75;0.90;;;;;;;;;;20814462;28;20242;-84
2023/06/13 00:30:16;;;;;;;1.50;0.90;;;;;;;;;;20779102;28;20232;-83
2023/06/13 00:40:18;;;;;;;1.38;0.90;;;;;;;;;;20799295;28;20656;-85
2023/06/13 00:50:20;;;;;;;1.20;0.70;;;;;;;;;;20787673;28;20235;-84
2023/06/13 01:00:26;;;;;;;1.20;0.90;;;24.20;78.90;;;;;;20765023;28;20656;-84
2023/06/13 01:10:29;;;;;;;1.42;0.90;;;;;;;;;;20773422;28;20219;-83
2023/06/13 01:20:33;;;;;;;1.83;1.10;;;;;;;;;;20798322;28;20265;-83
2023/06/13 01:30:35;;;;;;;1.13;0.80;;;24.00;73.20;;;;;;20769587;28;20238;-83
2023/06/13 01:40:37;;;;;;;1.40;0.77;;;;;;;;;;20818673;28;20243;-84
2023/06/13 01:50:57;;;;;;;1.00;0.70;;;23.80;73.70;;;;;;20817227;28;20238;-83
2023/06/13 02:01:01;;;;;;;1.40;0.80;;;;;;;;;;20793140;28;20290;-83
2023/06/13 02:11:03;;;;;;;1.10;0.80;;;;;;;;;;20820108;28;20241;-83
2023/06/13 02:21:07;;;;;;;3.50;1.08;;;;;;;;;;20801113;28;20650;-84
2023/06/13 02:31:09;;;;;;;2.00;1.00;;;;;;;;;;20846726;28;20215;-83
2023/06/13 02:41:11;;;;;;;1.42;0.90;;;23.40;79.70;;;;;;20802100;28;20699;-82
2023/06/13 02:51:13;;;;;;;1.08;0.70;;;;;;;;;;20812663;28;20599;-82
2023/06/13 03:01:15;;;;;;;2.88;1.00;;;;;;;;;;20819838;28;20752;-82
2023/06/13 03:11:18;;;;;;;1.27;0.90;;;;;;;;;;20799894;28;20237;-83
2023/06/13 03:21:20;;;;;;;2.15;1.02;;;;;;;;;;20806462;28;20288;-81
2023/06/13 03:31:22;;;;;;;2.13;1.08;;;;;;;;;;20838387;28;20288;-81
2023/06/13 03:41:26;;;;;;;2.45;1.10;;;;;;;;;;20827973;28;20310;-81
2023/06/13 03:51:28;;;;;;;5.95;2.13;;;;;;;;;;20775659;28;20245;-82
2023/06/13 04:01:29;;;;;;;2.63;1.40;;;;;;;;;;20824883;28;20235;-82
2023/06/13 04:11:32;;;;;;;4.93;1.40;;;;;;;;;;20818941;28;20705;-82
2023/06/13 04:21:34;;;;;;;1.55;1.00;;;;;;;;;;20790233;28;20261;-81
2023/06/13 04:31:36;;;;;;;4.00;1.40;;;;;;;;;;20836513;28;20290;-82
2023/06/13 04:41:38;;;;;;;4.15;1.20;;;21.30;83.40;;;;;;20793926;28;20269;-82
2023/06/13 04:51:40;;;;;;;4.60;1.30;;;;;;;;;;20820996;28;20231;-82
2023/06/13 05:01:43;;;;;;;2.25;1.13;;;;;;;;;;20837896;28;20223;-81
2023/06/13 05:11:44;;;;;;;3.27;1.20;;;;;;;;;;20858864;28;20242;-82
2023/06/13 05:21:46;;;;;;;3.83;1.10;;;;;;;;;;20807850;28;20221;-82
2023/06/13 05:31:49;;;;;;;3.80;0.93;;;;;;;;;;20821403;28;20265;-82
2023/06/13 05:41:50;;;;;;;1.60;0.90;;;;;;;;;;20811415;28;20239;-82
2023/06/13 05:51:53;;;;;;;2.92;0.88;;;;;;;;;;20843696;28;20269;-81
2023/06/13 06:01:55;;;;;;;2.55;0.93;;;;;;;;;;20811140;28;20237;-81
2023/06/13 06:11:57;;;;;;;0.90;0.57;;;;;;;;;;20802567;28;20229;-80
2023/06/13 06:21:58;;;;;;;1.20;0.80;;;;;;;;;;20818503;28;20232;-82
2023/06/13 06:32:00;;;;;;;1.33;0.80;;;;;;;;;;20846241;28;20230;-81
2023/06/13 06:42:02;;;;;;;1.73;0.70;;;;;;;;;;20800163;28;20249;-80
2023/06/13 06:52:30;;;;;;;1.10;0.80;;;;;;;;;;20837600;28;20791;-81
2023/06/13 07:02:31;;;;;;;1.55;0.75;;;;;;;;;;20857498;28;20230;-80
2023/06/13 07:12:34;;;;;;;1.23;0.70;;;;;;;;;;20814140;28;20238;-80
2023/06/13 07:22:36;;;;;;;2.30;0.70;;;;;;;;;;20802917;28;20791;-80
2023/06/13 07:32:37;;;;;;;3.13;0.77;;;;;;;;;;20845493;28;20558;-81
2023/06/13 07:42:39;;;;;;;1.15;0.73;;;;;;;;;;20803205;28;20232;-82
2023/06/13 07:52:41;;;;;;;1.67;0.90;;;;;;;;;;20809622;28;20223;-82
2023/06/13 08:02:43;;;;;;;1.55;0.85;;;23.80;73.60;;;;;;20840647;28;20236;-81
2023/06/13 08:12:45;;;;;;;1.15;0.80;;;;;;;;;;20814782;28;20232;-82
2023/06/13 08:22:47;;;;;;;1.83;0.77;;;;;;;;;;20865989;28;20235;-84
2023/06/13 08:32:52;;;;;;;1.98;0.90;;;;;;;;;;20780395;28;20299;-84
2023/06/13 08:42:54;;;;;;;2.25;0.85;;;;;;;;;;20794867;28;20275;-84
2023/06/13 08:52:58;;;;;;;1.67;1.02;;;25.00;75.10;;;;;;20820556;28;20195;-84
2023/06/13 09:03:01;;;;;;;1.95;1.00;;;;;;;;;;20798911;28;20230;-84
2023/06/13 09:13:05;;;;;;;2.63;0.70;;;;;;;;;;20853413;28;20228;-84
2023/06/13 09:23:08;;;;;;;1.48;0.80;;;;;;;;;;20815387;28;20721;-84
2023/06/13 09:33:10;;;;;;;2.85;0.90;;;;;;;;;;20824419;28;20286;-84
2023/06/13 09:43:13;;;;;;;1.40;0.70;;;26.00;68.70;;;;;;20815913;28;20623;-84
2023/06/13 09:53:15;;;;;;;1.75;1.00;;;;;;;;;;20845373;28;20221;-85
2023/06/13 10:03:18;;;;;;;4.03;0.80;;;;;;;;;;20814795;28;20287;-83
2023/06/13 10:13:25;;;;;;;1.48;0.88;;;;;;;;;;20807343;28;20286;-84
2023/06/13 10:23:30;;;;;;;3.08;0.95;;;27.10;61.90;;;;;;20844179;28;20286;-84
2023/06/13 10:34:00;;;;;;;1.40;0.93;;;27.70;55.80;;;;;;20821747;28;20282;-85
2023/06/13 10:44:14;;;;;;;1.23;0.90;;;;;;;;;;20817070;28;20681;-84
2023/06/13 10:54:16;;;;;;;2.30;1.00;;;;;;;;;;20842391;28;20217;-84
2023/06/13 11:04:19;;;;;;;1.45;0.95;;;;;;;;;;20801197;28;20283;-84
2023/06/13 11:14:22;;;;;;;1.10;0.60;;;;;;;;;;20846259;28;20282;-85
2023/06/13 11:24:24;;;;;;;1.63;0.80;;;;;;;;;;20825394;28;20248;-84
2023/06/13 11:34:29;;;;;;;1.63;0.90;;;;;;;;;;20798686;28;20271;-84
2023/06/13 11:44:30;;;;;;;1.67;0.90;;;;;;;;;;20826208;28;20244;-84
2023/06/13 11:54:32;;;;;;;2.60;0.95;;;;;;;;;;20797942;28;20237;-84
2023/06/13 12:04:34;;;;;;;2.10;1.02;;;;;;;;;;20840026;28;20238;-84
2023/06/13 12:14:37;;;;;;;2.47;0.90;;;;;;;;;;20821889;28;20233;-84
2023/06/13 12:24:39;;;;;;;1.20;0.80;;;30.00;56.80;;;;;;20834548;28;20299;-84
2023/06/13 12:34:45;;;;;;;3.13;1.05;;;;;;;;;;20802301;28;20797;-84
2023/06/13 12:44:46;;;;;;;4.97;1.00;;;;;;;;;;20792523;28;20241;-84
2023/06/13 12:54:48;;;;;;;1.30;0.80;;;;;;;;;;20827077;28;20291;-84
2023/06/13 13:05:00;;;;;;;0.90;0.70;;;;;;;;;;20790918;28;20716;-84
2023/06/13 13:15:02;;;;;;;1.48;0.82;;;;;;;;;;20790785;28;20263;-84
2023/06/13 13:25:03;;;;;;;1.25;0.88;;;;;;;;;;20836601;28;20263;-84
2023/06/13 13:35:08;;;;;;;1.65;1.00;;;30.50;57.30;;;;;;20855061;28;20275;-84
2023/06/13 13:45:10;;;;;;;2.13;0.80;;;;;;;;;;20786840;28;20229;-84
2023/06/13 13:55:13;;;;;;;1.92;1.00;;;;;;;;;;20827596;28;20595;-84
2023/06/13 14:05:17;;;;;;;1.17;0.80;;;;;;;;;;20818371;28;20296;-84
2023/06/13 14:15:19;;;;;;;6.35;1.00;;;;;;;;;;20802152;28;20242;-85
2023/06/13 14:25:20;;;;;;;3.13;0.95;;;;;;;;;;20797696;28;20307;-84
2023/06/13 14:35:22;;;;;;;2.50;1.13;;;;;;;;;;20839141;28;20265;-84
2023/06/13 14:45:24;;;;;;;2.05;0.88;;;;;;;;;;20845469;28;20268;-84
2023/06/13 14:55:26;;;;;;;1.30;0.80;;;30.80;56.60;;;;;;20804695;28;20228;-84
2023/06/13 15:05:28;;;;;;;1.30;0.73;;;;;;;;;;20779560;28;20596;-84
2023/06/13 15:15:30;;;;;;;2.35;1.00;;;;;;;;;;20801445;28;20226;-84
2023/06/13 15:25:31;;;;;;;0.82;0.75;;;;;;;;;;20824694;28;20246;-85
2023/06/13 15:35:33;;;;;;;2.78;1.38;;;;;;;;;;20826615;28;20226;-84
2023/06/13 15:45:35;;;;;;;0.80;0.63;;;;;;;;;;20827878;28;20238;-85
2023/06/13 15:55:39;;;;;;;3.55;1.10;;;;;;;;;;20787484;28;20253;-85
2023/06/13 16:05:41;;;;;;;3.47;1.00;;;;;;;;;;20765446;28;20712;-84
2023/06/13 16:15:42;;;;;;;1.52;0.88;;;;;;;;;;20866773;28;20288;-84
2023/06/13 16:25:44;;;;;;;1.67;0.82;;;;;;;;;;20780977;28;20243;-84
2023/06/13 16:35:46;;;;;;;2.05;0.85;;;;;;;;;;20744190;28;20246;-85
2023/06/13 16:45:47;;;;;;;3.42;0.90;;;;;;;;;;20760239;28;20304;-84
2023/06/13 16:55:49;;;;;;;4.07;1.00;;;;;;;;;;20748086;28;20276;-84
2023/06/13 17:05:51;;;;;;;1.52;0.82;;;;;;;;;;20796903;28;20238;-84
2023/06/13 17:15:52;;;;;;;1.48;0.88;;;;;;;;;;20769824;28;20304;-84
2023/06/13 17:25:54;;;;;;;1.40;0.98;;;;;;;;;;20788580;28;20642;-83
2023/06/13 17:35:56;;;;;;;3.50;1.13;;;;;;;;;;20799494;28;20616;-84
2023/06/13 17:45:58;;;;;;;1.67;0.93;;;;;;;;;;20789541;28;20260;-86
2023/06/13 17:56:00;;;;;;;1.15;0.73;;;;;;;;;;20834677;28;20703;-85
2023/06/13 18:06:03;;;;;;;1.30;0.90;;;28.80;55.00;;;;;;20786818;28;20252;-84
2023/06/13 18:16:05;;;;;;;1.30;0.68;;;;;;;;;;20787151;28;20221;-85
2023/06/13 18:26:07;;;;;;;1.70;0.90;;;;;;;;;;20834253;28;20283;-84
2023/06/13 18:36:08;;;;;;;1.67;0.80;;;;;;;;;;20791183;28;20284;-84
2023/06/13 18:46:11;;;;;;;1.48;0.77;;;;;;;;;;20857759;28;20287;-84
2023/06/13 18:56:13;;;;;;;1.75;0.82;;;;;;;;;;20803650;28;20268;-84
2023/06/13 19:06:15;;;;;;;1.33;0.82;;;;;;;;;;20801743;28;20233;-84
2023/06/13 19:16:18;;;;;;;2.85;0.88;;;;;;;;;;20764688;28;20732;-84
2023/06/13 19:26:21;;;;;;;1.05;0.70;;;;;;;;;;20865365;28;20209;-86
2023/06/13 19:36:29;;;;;;;2.58;1.08;;;;;;;;;;20805331;28;20237;-87
2023/06/13 19:46:52;;;;;;;1.42;0.68;;;;;;;;;;20835658;28;20296;-84
2023/06/13 19:56:54;;;;;;;1.33;0.93;;;;;;;;;;20839074;28;20270;-84
2023/06/13 20:07:07;;;;;;;1.38;0.80;;;;;;;;;;20818279;28;20283;-86
2023/06/13 20:17:41;;;;;;;1.35;0.90;;;;;;;;;;20722684;23;20268;-72
2023/06/13 20:27:44;;;;;;;1.40;0.85;;;;;;;;;;20666138;28;20220;-72
2023/06/13 20:37:45;;;;;;;3.70;1.08;;;;;;;;;;20684559;28;20233;-72
2023/06/13 20:47:48;;;;;;;2.85;0.95;;;;;;;;;;20681783;28;20214;-72
2023/06/13 20:57:51;;;;;;;3.83;1.05;;;;;;;;;;20666855;28;20279;-72
2023/06/13 21:07:57;;;;;;;7.00;1.60;;;26.60;69.60;;;;;;20698698;28;20249;-72
2023/06/13 21:17:58;;;;;;;7.53;2.17;;;26.50;70.30;;;;;;20682765;28;20230;-72
2023/06/13 21:28:00;;;;;;;3.28;1.10;;;;;;;;;;20690220;28;20242;-72
2023/06/13 21:38:02;;;;;;;2.22;1.10;;;;;;;;;;20684021;28;20229;-71
2023/06/13 21:48:04;;;;;;;2.28;1.20;;;;;;;;;;20686906;28;20286;-72
2023/06/13 21:58:06;;;;;;;1.98;0.98;;;28.90;71.40;;;;;;20687364;28;20703;-71
2023/06/13 22:08:08;;;;;;;1.40;0.90;;;;;;;;;;20687370;28;20242;-72
2023/06/13 22:18:11;;;;;;;1.60;1.00;;;;;;;;;;20695518;28;20325;-71
2023/06/13 22:28:13;;;;;;;3.85;0.98;;;;;;;;;;20686590;28;20218;-71
2023/06/13 22:38:15;;;;;;;2.72;0.90;;;;;;;;;;20687496;28;20230;-71
2023/06/13 22:48:17;;;;;;;3.60;1.10;;;;;;;;;;20700172;28;20229;-71
2023/06/13 22:58:19;;;;;;;2.05;1.17;;;;;;;;;;20699320;28;20611;-72
2023/06/13 23:08:22;;;;;;;2.55;1.40;;;;;;;;;;20715340;28;20640;-71
2023/06/13 23:18:25;;;;;;;4.50;1.65;;;;;;;;;;20723011;28;20229;-72
2023/06/13 23:28:29;;;;;;;3.05;1.33;;;;;;;;;;20695677;28;20226;-71
2023/06/13 23:38:30;;;;;;;1.60;1.20;;;;;;;;;;20686261;28;20221;-71
2023/06/13 23:48:32;;;;;;;2.75;1.23;;;24.30;76.10;;;;;;20711755;28;20274;-71
2023/06/13 23:58:35;;;;;;;5.30;1.10;;;;;;;;;;20694649;28;20292;-71
